LIRZ/PEG METAR and TAF weather

Enter ICAO airport designator
Station Type Date Time Source
LIRZ METAR 2018/12/17 01:59 UTC NOAA

LIRZ 170159Z AUTO 33007KT 9999 DZ OVC041/// 05/03 Q1011


Station Type Date Time Source
LIRZ Decoded METAR 2018/12/17 01:59 UTC NOAA

Perugia, Italy (LIRZ) 43-05N 012-30E 205M
Dec 16, 2018 - 08:59 PM EST / 2018.12.17 0159 UTC
Wind: from the NNW (330 degrees) at 8 MPH (7 KT):0
Visibility: greater than 7 mile(s):0
Sky conditions: overcast
Weather: drizzle
Temperature: 41 F (5 C)
Dew Point: 37 F (3 C)
Relative Humidity: 86%
Pressure (altimeter): 29.85 in. Hg (1011 hPa)
ob: LIRZ 170159Z AUTO 33007KT 9999 DZ OVC041/// 05/03 Q1011
cycle: 2

Station Type Date Time Source
LIRZ TAF 2018/12/16 18:21 UTC NOAA

TAF LIRZ 161700Z 1618/1718 VRB05KT 8000 RA BKN018
TEMPO 1618/1624 4000 RASN
BECMG 1706/1708 02012KT
BECMG 1712/1714 NSW


Example: see airport list